Blanc-Sablon, Canada
Current Conditions -  °F | °C
As of 7:00 PM on Wednesday 28 Jan 2015 (Local Time) from CYBX Reporting Station
Light Snow Light Snow  
Wind Chill:   Ceiling: 3000
Heat Index: 21°   Visibility: 12mi
Dew Point: 18°   Wind: 22mph
Humidity: 86%   Direction: 50°NE
Pressure: 29.76"   Gusts: NA
Location:  51.43°N, 57.12°W
Report Text: CYBX 282200Z 05019KT 12SM -SN OVC030 M06/M08 A2976 RMK SC8 SLP079
Loading
Personal Weather Stations






























Interactive Weather Map New forecast layout! Learn more

10-Day Weather Forecast

Advertisements
Track Severe Weather on mobile